Skokomish, Washington
Current Conditions -  °F | °C
As of 12:53 AM on Tuesday 21 Oct 2014 (Local Time) from KSHN Reporting Station
Overcast Overcast  
Wind Chill: 53°   Ceiling: 3200
Heat Index: 53°   Visibility: 10mi
Dew Point: 51°   Wind: 3mph
Humidity: 93%   Direction: 290°WNW
Pressure: 29.78"   Gusts: NA
Location:  47.1839°N, 123.15°W
Report Text: KSHN 210753Z AUTO 29003KT 10SM BKN032 OVC046 12/11 A2978 RMK AO2 RAB0657E12 SLP085 P0000 T01170106 401830111 TSNO
Loading
Personal Weather Stations






























Interactive Weather Map
Tropical Storm Tracking
New forecast layout! Learn more

10-Day Weather Forecast

Advertisements
Track Severe Weather on mobile